createdAt,value
2018-09-09T00:00:00.988Z,21.49
2018-09-09T00:00:32.110Z,21.53
2018-09-09T00:01:03.269Z,21.56
2018-09-09T00:01:34.393Z,21.54
2018-09-09T00:02:05.622Z,21.54
2018-09-09T00:02:36.811Z,21.55
2018-09-09T00:03:07.922Z,21.55
2018-09-09T00:03:39.122Z,21.58
2018-09-09T00:04:10.337Z,21.59
2018-09-09T00:04:41.522Z,21.59
2018-09-09T00:05:12.631Z,21.58
2018-09-09T00:05:43.804Z,21.59
2018-09-09T00:06:14.968Z,21.59
2018-09-09T00:06:46.161Z,21.58
2018-09-09T00:07:17.302Z,21.56
2018-09-09T00:07:48.413Z,21.53
2018-09-09T00:08:19.585Z,21.52
2018-09-09T00:08:50.756Z,21.52
2018-09-09T00:09:21.895Z,21.50
2018-09-09T00:09:53.009Z,21.50
2018-09-09T00:10:24.221Z,21.50
2018-09-09T00:10:55.420Z,21.49
2018-09-09T00:11:27.536Z,21.48
2018-09-09T00:11:58.703Z,21.51
2018-09-09T00:12:29.868Z,21.50
2018-09-09T00:13:01.109Z,21.51
2018-09-09T00:13:32.277Z,21.52
2018-09-09T00:14:03.427Z,21.54
2018-09-09T00:14:34.583Z,21.55
2018-09-09T00:15:05.693Z,21.56
2018-09-09T00:15:36.829Z,21.54
2018-09-09T00:16:07.992Z,21.59
2018-09-09T00:16:39.233Z,21.60
2018-09-09T00:17:10.359Z,21.61
2018-09-09T00:17:41.589Z,21.64
2018-09-09T00:18:12.820Z,21.67
2018-09-09T00:18:43.969Z,21.70
2018-09-09T00:19:15.097Z,21.71
2018-09-09T00:19:46.265Z,21.70
2018-09-09T00:20:17.385Z,21.48
2018-09-09T00:20:48.508Z,21.70
2018-09-09T00:21:19.623Z,21.69
2018-09-09T00:21:50.851Z,21.70
2018-09-09T00:22:22.083Z,21.72
2018-09-09T00:22:53.203Z,21.75
2018-09-09T00:23:24.364Z,21.74
2018-09-09T00:23:55.524Z,21.72
2018-09-09T00:24:26.632Z,21.72
2018-09-09T00:24:57.783Z,21.69
2018-09-09T00:25:28.896Z,21.66
2018-09-09T00:26:00.013Z,21.64
2018-09-09T00:26:31.196Z,21.61
2018-09-09T00:27:02.308Z,21.61
2018-09-09T00:27:33.513Z,21.60
2018-09-09T00:28:04.636Z,21.59
2018-09-09T00:28:35.769Z,21.58
2018-09-09T00:29:06.982Z,21.57
2018-09-09T00:29:38.109Z,21.56
2018-09-09T00:30:09.296Z,21.55
2018-09-09T00:30:40.415Z,21.54
2018-09-09T00:31:11.584Z,21.53
2018-09-09T00:31:42.764Z,21.54
2018-09-09T00:32:13.889Z,21.54
2018-09-09T00:32:45.111Z,21.54
2018-09-09T00:33:17.127Z,21.51
2018-09-09T00:33:48.243Z,21.50
2018-09-09T00:34:19.504Z,21.49
2018-09-09T00:34:50.620Z,21.49
2018-09-09T00:35:21.732Z,21.48
2018-09-09T00:35:52.905Z,21.46
2018-09-09T00:36:24.077Z,21.47
2018-09-09T00:36:55.260Z,21.46
2018-09-09T00:37:26.376Z,21.47
2018-09-09T00:37:57.495Z,21.48
2018-09-09T00:38:28.621Z,21.32
2018-09-09T00:38:59.810Z,21.49
2018-09-09T00:39:30.956Z,21.50
2018-09-09T00:40:02.068Z,21.50
2018-09-09T00:40:33.296Z,21.52
2018-09-09T00:41:04.469Z,21.55
2018-09-09T00:41:35.645Z,21.56
2018-09-09T00:42:06.816Z,21.59
2018-09-09T00:42:37.984Z,21.59
2018-09-09T00:43:09.165Z,21.57
2018-09-09T00:43:40.328Z,21.58
2018-09-09T00:44:11.554Z,21.53
2018-09-09T00:44:42.675Z,21.52
2018-09-09T00:45:13.803Z,21.51
2018-09-09T00:45:44.992Z,21.49
2018-09-09T00:46:16.188Z,21.48
2018-09-09T00:46:47.308Z,21.48
2018-09-09T00:47:18.464Z,21.46
2018-09-09T00:47:49.582Z,21.45
2018-09-09T00:48:20.755Z,21.46
2018-09-09T00:48:51.899Z,21.44
2018-09-09T00:49:23.127Z,21.42
2018-09-09T00:49:54.314Z,21.42
2018-09-09T00:50:25.430Z,21.40
2018-09-09T00:50:56.656Z,21.40
2018-09-09T00:51:27.811Z,21.40
2018-09-09T00:51:58.977Z,21.39
2018-09-09T00:52:30.111Z,21.38
2018-09-09T00:53:01.280Z,21.38
2018-09-09T00:53:32.388Z,21.38
2018-09-09T00:54:03.564Z,21.40
2018-09-09T00:54:34.726Z,21.42
2018-09-09T00:55:05.868Z,21.43
2018-09-09T00:55:37.043Z,21.44
2018-09-09T00:56:08.218Z,21.44
2018-09-09T00:56:39.344Z,21.45
2018-09-09T00:57:10.460Z,21.47
2018-09-09T00:57:41.594Z,21.49
2018-09-09T00:58:12.766Z,21.52
2018-09-09T00:58:43.939Z,21.54
2018-09-09T00:59:15.169Z,21.56
2018-09-09T00:59:46.377Z,21.58
2018-09-09T01:00:17.505Z,21.58
2018-09-09T01:00:48.669Z,21.54
2018-09-09T01:01:19.789Z,21.51
2018-09-09T01:01:50.966Z,21.48
2018-09-09T01:02:22.146Z,21.45
2018-09-09T01:02:53.283Z,21.45
2018-09-09T01:03:24.456Z,21.43
2018-09-09T01:03:55.572Z,21.40
2018-09-09T01:04:26.929Z,21.39
2018-09-09T01:04:58.100Z,21.36
2018-09-09T01:05:29.289Z,21.35
2018-09-09T01:06:00.398Z,21.36
2018-09-09T01:06:31.510Z,21.34
2018-09-09T01:07:02.640Z,21.34
2018-09-09T01:07:33.753Z,21.35
2018-09-09T01:08:04.881Z,21.33
2018-09-09T01:08:36.056Z,21.16
2018-09-09T01:09:07.226Z,21.32
2018-09-09T01:09:38.428Z,21.32
2018-09-09T01:10:09.535Z,21.31
2018-09-09T01:10:40.704Z,21.31
2018-09-09T01:11:11.932Z,21.33
2018-09-09T01:11:43.062Z,21.36
2018-09-09T01:12:14.295Z,21.35
2018-09-09T01:12:45.476Z,21.36
2018-09-09T01:13:16.652Z,21.38
2018-09-09T01:13:47.832Z,21.38
2018-09-09T01:14:18.955Z,21.37
2018-09-09T01:14:50.103Z,21.37
2018-09-09T01:15:21.279Z,21.37
2018-09-09T01:15:52.485Z,21.40
2018-09-09T01:16:23.597Z,21.40
2018-09-09T01:16:54.773Z,21.42
2018-09-09T01:17:25.887Z,21.42
2018-09-09T01:17:57.049Z,21.42
2018-09-09T01:18:28.183Z,21.42
2018-09-09T01:18:59.868Z,21.42
2018-09-09T01:19:30.969Z,21.39
2018-09-09T01:20:02.116Z,21.37
2018-09-09T01:20:33.279Z,21.35
2018-09-09T01:21:04.562Z,21.32
2018-09-09T01:21:35.789Z,21.30
2018-09-09T01:22:06.958Z,21.29
2018-09-09T01:22:38.073Z,21.29
2018-09-09T01:23:09.197Z,21.28
2018-09-09T01:23:40.376Z,21.27
2018-09-09T01:24:11.612Z,21.27
2018-09-09T01:24:42.731Z,21.27
2018-09-09T01:25:13.952Z,21.26
2018-09-09T01:25:45.132Z,21.26
2018-09-09T01:26:16.280Z,21.25
2018-09-09T01:26:47.429Z,21.25
2018-09-09T01:27:18.588Z,21.24
2018-09-09T01:27:49.770Z,21.26
2018-09-09T01:28:20.883Z,21.27
2018-09-09T01:28:52.048Z,21.26
2018-09-09T01:29:23.167Z,21.29
2018-09-09T01:29:54.289Z,21.29
2018-09-09T01:30:25.457Z,21.29
2018-09-09T01:30:56.628Z,21.30
2018-09-09T01:31:27.820Z,21.31
2018-09-09T01:31:59.034Z,21.31
2018-09-09T01:32:30.190Z,21.29
2018-09-09T01:33:01.412Z,21.29
2018-09-09T01:33:32.628Z,21.29
2018-09-09T01:34:03.808Z,21.27
2018-09-09T01:34:35.041Z,21.27
2018-09-09T01:35:06.221Z,21.29
2018-09-09T01:35:37.386Z,21.27
2018-09-09T01:36:08.561Z,21.27
2018-09-09T01:36:39.699Z,21.24
2018-09-09T01:37:10.888Z,21.21
2018-09-09T01:37:42.010Z,21.21
2018-09-09T01:38:13.234Z,21.19
2018-09-09T01:38:44.511Z,21.17
2018-09-09T01:39:15.628Z,21.15
2018-09-09T01:39:46.735Z,21.12
2018-09-09T01:40:17.859Z,21.10
2018-09-09T01:40:49.024Z,21.11
2018-09-09T01:41:20.201Z,21.10
2018-09-09T01:41:51.415Z,21.10
2018-09-09T01:42:22.535Z,21.08
2018-09-09T01:42:53.652Z,21.07
2018-09-09T01:43:24.764Z,21.07
2018-09-09T01:43:55.869Z,21.07
2018-09-09T01:44:27.109Z,21.06
2018-09-09T01:44:58.277Z,21.07
2018-09-09T01:45:29.489Z,21.08
2018-09-09T01:46:00.612Z,21.08
2018-09-09T01:46:31.735Z,21.07
2018-09-09T01:47:02.861Z,21.07
2018-09-09T01:47:34.031Z,21.09
2018-09-09T01:48:05.195Z,21.09
2018-09-09T01:48:36.373Z,21.08
2018-09-09T01:49:07.570Z,21.09
2018-09-09T01:49:38.749Z,21.09
2018-09-09T01:50:09.870Z,21.10
2018-09-09T01:50:41.081Z,21.09
2018-09-09T01:51:12.346Z,21.09
2018-09-09T01:51:43.587Z,21.07
2018-09-09T01:52:14.729Z,21.08
2018-09-09T01:52:45.848Z,21.09
2018-09-09T01:53:17.019Z,21.08
2018-09-09T01:53:48.128Z,21.07
2018-09-09T01:54:19.300Z,21.07
2018-09-09T01:54:50.494Z,21.06
2018-09-09T01:55:21.665Z,21.05
2018-09-09T01:55:52.912Z,21.03
2018-09-09T01:56:24.117Z,21.01
2018-09-09T01:56:55.272Z,20.99
2018-09-09T01:57:26.467Z,20.98
2018-09-09T01:57:57.645Z,20.96
2018-09-09T01:58:28.812Z,20.94
2018-09-09T01:59:00.041Z,20.93
2018-09-09T01:59:31.164Z,20.91
2018-09-09T02:00:02.348Z,20.89
2018-09-09T02:00:33.452Z,20.91
2018-09-09T02:01:04.682Z,20.90
2018-09-09T02:01:35.810Z,20.91
2018-09-09T02:02:06.966Z,20.90
2018-09-09T02:02:38.129Z,20.90
2018-09-09T02:03:09.263Z,20.91
2018-09-09T02:03:40.374Z,20.90
2018-09-09T02:04:11.537Z,20.91
2018-09-09T02:04:42.700Z,20.93
2018-09-09T02:05:13.881Z,20.93
2018-09-09T02:05:45.065Z,20.97
2018-09-09T02:06:16.235Z,20.97
2018-09-09T02:06:47.354Z,20.98
2018-09-09T02:07:18.524Z,20.99
2018-09-09T02:07:49.648Z,20.99
2018-09-09T02:08:20.795Z,20.99
2018-09-09T02:08:51.904Z,21.01
2018-09-09T02:09:23.081Z,21.01
2018-09-09T02:09:54.205Z,21.01
2018-09-09T02:10:25.425Z,21.03
2018-09-09T02:10:56.565Z,21.04
2018-09-09T02:11:27.681Z,21.05
2018-09-09T02:11:58.791Z,21.07
2018-09-09T02:12:29.961Z,21.05
2018-09-09T02:13:01.128Z,21.05
2018-09-09T02:13:32.298Z,21.05
2018-09-09T02:14:03.414Z,21.03
2018-09-09T02:14:34.532Z,21.03
2018-09-09T02:15:05.683Z,21.00
2018-09-09T02:15:36.854Z,21.00
2018-09-09T02:16:07.991Z,20.99
2018-09-09T02:16:39.104Z,21.00
2018-09-09T02:17:10.285Z,20.99
2018-09-09T02:17:41.443Z,20.98
2018-09-09T02:18:12.606Z,20.99
2018-09-09T02:18:43.800Z,21.00
2018-09-09T02:19:14.917Z,21.00
2018-09-09T02:19:46.077Z,21.01
2018-09-09T02:20:17.257Z,21.00
2018-09-09T02:20:48.379Z,21.00
2018-09-09T02:21:19.579Z,21.01
2018-09-09T02:21:50.692Z,21.00
2018-09-09T02:22:21.797Z,20.99
2018-09-09T02:22:53.013Z,21.00
2018-09-09T02:23:24.119Z,21.01
2018-09-09T02:23:55.303Z,21.04
2018-09-09T02:24:26.463Z,21.04
2018-09-09T02:24:57.584Z,21.06
2018-09-09T02:25:28.764Z,21.07
2018-09-09T02:25:59.988Z,21.07
2018-09-09T02:26:31.184Z,21.06
2018-09-09T02:27:02.300Z,21.07
2018-09-09T02:27:33.459Z,21.06
2018-09-09T02:28:04.676Z,21.08
2018-09-09T02:28:35.825Z,21.08
2018-09-09T02:29:06.987Z,21.09
2018-09-09T02:29:38.108Z,21.08
2018-09-09T02:30:09.228Z,21.06
2018-09-09T02:30:40.357Z,21.05
2018-09-09T02:31:11.464Z,21.03
2018-09-09T02:31:42.679Z,21.00
2018-09-09T02:32:13.842Z,21.02
2018-09-09T02:32:45.063Z,20.99
2018-09-09T02:33:16.171Z,21.00
2018-09-09T02:33:47.397Z,20.98
2018-09-09T02:34:18.577Z,20.97
2018-09-09T02:34:49.755Z,20.96
2018-09-09T02:35:20.931Z,20.93
2018-09-09T02:35:52.065Z,20.92
2018-09-09T02:36:23.186Z,20.90
2018-09-09T02:36:54.457Z,20.92
2018-09-09T02:37:25.636Z,20.90
2018-09-09T02:37:56.767Z,20.91
2018-09-09T02:38:27.950Z,20.90
2018-09-09T02:38:59.064Z,20.89
2018-09-09T02:39:30.224Z,20.89
2018-09-09T02:40:01.343Z,20.90
2018-09-09T02:40:32.459Z,20.90
2018-09-09T02:41:03.638Z,20.94
2018-09-09T02:41:34.761Z,20.96
2018-09-09T02:42:05.980Z,21.00
2018-09-09T02:42:37.180Z,21.01
2018-09-09T02:43:08.413Z,21.03
2018-09-09T02:43:39.838Z,21.02
2018-09-09T02:44:11.357Z,21.03
2018-09-09T02:44:42.541Z,21.02
2018-09-09T02:45:13.652Z,21.00
2018-09-09T02:45:44.879Z,20.95
2018-09-09T02:46:16.062Z,20.91
2018-09-09T02:46:47.186Z,20.92
2018-09-09T02:47:18.421Z,20.90
2018-09-09T02:47:49.633Z,20.87
2018-09-09T02:48:20.817Z,20.86
2018-09-09T02:48:51.927Z,20.83
2018-09-09T02:49:23.101Z,20.81
2018-09-09T02:49:54.220Z,20.78
2018-09-09T02:50:25.376Z,20.76
2018-09-09T02:50:56.492Z,20.74
2018-09-09T02:51:27.613Z,20.75
2018-09-09T02:51:58.779Z,20.72
2018-09-09T02:52:29.980Z,20.71
2018-09-09T02:53:01.105Z,20.70
2018-09-09T02:53:32.216Z,20.66
2018-09-09T02:54:03.382Z,20.65
2018-09-09T02:54:34.541Z,20.64
2018-09-09T02:55:05.729Z,20.63
2018-09-09T02:55:36.861Z,20.62
2018-09-09T02:56:08.008Z,20.60
2018-09-09T02:56:39.175Z,20.59
2018-09-09T02:57:10.352Z,20.56
2018-09-09T02:57:41.538Z,20.57
2018-09-09T02:58:12.753Z,20.58
2018-09-09T02:58:43.864Z,20.58
2018-09-09T02:59:15.038Z,20.58
2018-09-09T02:59:46.199Z,20.58
2018-09-09T03:00:17.330Z,20.60
2018-09-09T03:00:48.496Z,20.60
2018-09-09T03:01:19.669Z,20.59
2018-09-09T03:01:50.840Z,20.59
2018-09-09T03:02:21.961Z,20.59
2018-09-09T03:02:53.086Z,20.56
2018-09-09T03:03:24.200Z,20.53
2018-09-09T03:03:55.312Z,20.49
2018-09-09T03:04:26.428Z,20.46
2018-09-09T03:04:57.592Z,20.45
2018-09-09T03:05:28.723Z,20.43
2018-09-09T03:05:59.841Z,20.41
2018-09-09T03:06:31.072Z,20.38
2018-09-09T03:07:02.246Z,20.35
2018-09-09T03:07:33.486Z,20.34
2018-09-09T03:08:04.696Z,20.33
2018-09-09T03:08:35.872Z,20.31
2018-09-09T03:09:07.049Z,20.29
2018-09-09T03:09:38.167Z,20.30
2018-09-09T03:10:09.309Z,20.29
2018-09-09T03:10:40.429Z,20.28
2018-09-09T03:11:11.652Z,20.29
2018-09-09T03:11:42.772Z,20.29
2018-09-09T03:12:13.928Z,20.32
2018-09-09T03:12:45.043Z,20.32
2018-09-09T03:13:16.212Z,20.32
2018-09-09T03:13:47.394Z,20.32
2018-09-09T03:14:18.564Z,20.31
2018-09-09T03:14:49.813Z,20.32
2018-09-09T03:15:20.994Z,20.32
2018-09-09T03:15:52.169Z,20.32
2018-09-09T03:16:23.340Z,20.33
2018-09-09T03:16:54.508Z,20.34
2018-09-09T03:17:25.620Z,20.37
2018-09-09T03:17:56.736Z,20.41
2018-09-09T03:18:27.956Z,20.43
2018-09-09T03:18:59.129Z,20.43
2018-09-09T03:19:30.248Z,20.46
2018-09-09T03:20:01.420Z,20.45
2018-09-09T03:20:32.644Z,20.41
2018-09-09T03:21:03.824Z,20.41
2018-09-09T03:21:34.960Z,20.40
2018-09-09T03:22:06.080Z,20.38
2018-09-09T03:22:37.262Z,20.35
2018-09-09T03:23:08.448Z,20.34
2018-09-09T03:23:39.693Z,20.33
2018-09-09T03:24:10.868Z,20.31
2018-09-09T03:24:42.099Z,20.30
2018-09-09T03:25:13.276Z,20.29
2018-09-09T03:25:44.396Z,20.29
2018-09-09T03:26:15.578Z,20.28
2018-09-09T03:26:46.776Z,20.27
2018-09-09T03:27:17.883Z,20.25
2018-09-09T03:27:49.001Z,20.24
2018-09-09T03:28:20.197Z,20.22
2018-09-09T03:28:51.413Z,20.22
2018-09-09T03:29:22.512Z,20.20
2018-09-09T03:29:53.688Z,20.20
2018-09-09T03:30:24.813Z,20.22
2018-09-09T03:30:55.936Z,20.23
2018-09-09T03:31:27.058Z,20.24
2018-09-09T03:31:58.279Z,20.27
2018-09-09T03:32:29.460Z,20.28
2018-09-09T03:33:00.581Z,20.28
2018-09-09T03:33:31.835Z,20.29
2018-09-09T03:34:02.987Z,20.30
2018-09-09T03:34:34.100Z,20.33
2018-09-09T03:35:05.306Z,20.33
2018-09-09T03:35:36.480Z,20.33
2018-09-09T03:36:07.668Z,20.33
2018-09-09T03:36:38.803Z,20.32
2018-09-09T03:37:09.996Z,20.34
2018-09-09T03:37:41.244Z,20.31
2018-09-09T03:38:12.418Z,20.28
2018-09-09T03:38:43.589Z,20.28
2018-09-09T03:39:14.778Z,20.26
2018-09-09T03:39:45.910Z,20.21
2018-09-09T03:40:17.099Z,20.19
2018-09-09T03:40:48.215Z,20.18
2018-09-09T03:41:19.339Z,20.15
2018-09-09T03:41:50.529Z,20.14
2018-09-09T03:42:21.701Z,20.13
2018-09-09T03:42:52.909Z,20.11
2018-09-09T03:43:24.145Z,20.09
2018-09-09T03:43:55.306Z,20.10
2018-09-09T03:44:26.435Z,20.09
2018-09-09T03:44:57.617Z,20.10
2018-09-09T03:45:28.792Z,20.11
2018-09-09T03:45:59.972Z,20.10
2018-09-09T03:46:31.177Z,20.11
2018-09-09T03:47:02.293Z,20.11
2018-09-09T03:47:33.496Z,20.11
2018-09-09T03:48:04.669Z,20.11
2018-09-09T03:48:35.803Z,20.10
2018-09-09T03:49:06.984Z,20.12
2018-09-09T03:49:38.111Z,20.15
2018-09-09T03:50:09.290Z,20.17
2018-09-09T03:50:40.436Z,20.19
2018-09-09T03:51:11.613Z,20.21
2018-09-09T03:51:42.848Z,20.26
2018-09-09T03:52:14.037Z,20.29
2018-09-09T03:52:45.219Z,20.29
2018-09-09T03:53:16.335Z,20.30
2018-09-09T03:53:47.513Z,20.31
2018-09-09T03:54:18.640Z,20.32
2018-09-09T03:54:49.759Z,19.51
2018-09-09T03:55:20.879Z,20.33
2018-09-09T03:55:51.998Z,20.30
2018-09-09T03:56:23.225Z,20.31
2018-09-09T03:56:54.349Z,20.29
2018-09-09T03:57:25.476Z,20.27
2018-09-09T03:57:56.590Z,20.29
2018-09-09T03:58:27.800Z,20.28
2018-09-09T03:58:58.912Z,20.27
2018-09-09T03:59:30.133Z,20.27
2018-09-09T04:00:01.377Z,20.29
2018-09-09T04:00:32.548Z,20.30
2018-09-09T04:01:03.678Z,20.27
2018-09-09T04:01:34.791Z,20.27
2018-09-09T04:02:05.916Z,20.27
2018-09-09T04:02:37.039Z,20.27
2018-09-09T04:03:08.315Z,20.27
2018-09-09T04:03:39.497Z,20.25
2018-09-09T04:04:10.684Z,20.27
2018-09-09T04:04:41.855Z,20.27
2018-09-09T04:05:12.963Z,20.26
2018-09-09T04:05:44.204Z,20.25
2018-09-09T04:06:15.399Z,20.26
2018-09-09T04:06:46.563Z,20.26
2018-09-09T04:07:17.729Z,20.29
2018-09-09T04:07:48.972Z,20.31
2018-09-09T04:08:20.157Z,20.35
2018-09-09T04:08:51.363Z,20.37
2018-09-09T04:09:22.500Z,20.38
2018-09-09T04:09:53.634Z,20.42
2018-09-09T04:10:24.817Z,20.46
2018-09-09T04:10:56.037Z,20.50
2018-09-09T04:11:27.245Z,20.49
2018-09-09T04:11:58.417Z,20.49
2018-09-09T04:12:29.551Z,20.48
2018-09-09T04:13:00.733Z,20.47
2018-09-09T04:13:31.906Z,20.46
2018-09-09T04:14:03.068Z,20.46
2018-09-09T04:14:34.303Z,20.47
2018-09-09T04:15:05.498Z,20.48
2018-09-09T04:15:36.737Z,20.52
2018-09-09T04:16:07.971Z,20.57
2018-09-09T04:16:39.145Z,20.63
2018-09-09T04:17:10.348Z,20.70
2018-09-09T04:17:41.466Z,20.77
2018-09-09T04:18:12.579Z,20.84
2018-09-09T04:18:43.740Z,20.91
2018-09-09T04:19:14.952Z,20.95
2018-09-09T04:19:46.078Z,21.00
2018-09-09T04:20:17.241Z,21.08
2018-09-09T04:20:48.470Z,21.15
2018-09-09T04:21:19.693Z,21.20
2018-09-09T04:21:50.936Z,21.28
2018-09-09T04:22:22.052Z,21.37
2018-09-09T04:22:53.223Z,21.41
2018-09-09T04:23:24.392Z,21.50
2018-09-09T04:23:55.503Z,21.58
2018-09-09T04:24:26.610Z,21.66
2018-09-09T04:24:57.726Z,21.72
2018-09-09T04:25:28.833Z,21.73
2018-09-09T04:25:59.988Z,21.73
2018-09-09T04:26:31.104Z,21.79
2018-09-09T04:27:02.211Z,21.84
2018-09-09T04:27:33.401Z,21.89
2018-09-09T04:28:04.574Z,21.88
2018-09-09T04:28:35.745Z,21.91
2018-09-09T04:29:06.926Z,21.98
2018-09-09T04:29:38.040Z,22.01
2018-09-09T04:30:09.213Z,22.11
2018-09-09T04:30:40.394Z,22.13
2018-09-09T04:31:11.633Z,22.17
2018-09-09T04:31:42.867Z,22.22
2018-09-09T04:32:13.976Z,22.22
2018-09-09T04:32:45.136Z,22.24
2018-09-09T04:33:16.256Z,22.29
2018-09-09T04:33:47.369Z,22.35
2018-09-09T04:34:18.540Z,22.37
2018-09-09T04:34:49.720Z,22.46
2018-09-09T04:35:20.900Z,22.52
2018-09-09T04:35:52.019Z,22.58
2018-09-09T04:36:23.223Z,22.66
2018-09-09T04:36:54.408Z,22.78
2018-09-09T04:37:25.535Z,22.83
2018-09-09T04:37:56.697Z,22.88
2018-09-09T04:38:27.817Z,22.95
2018-09-09T04:38:58.928Z,23.06
2018-09-09T04:39:30.136Z,23.21
2018-09-09T04:40:01.259Z,23.29
2018-09-09T04:40:32.364Z,23.38
2018-09-09T04:41:03.576Z,23.49
2018-09-09T04:41:34.748Z,23.59
2018-09-09T04:42:05.936Z,23.64
2018-09-09T04:42:37.097Z,23.60
2018-09-09T04:43:08.212Z,23.54
2018-09-09T04:43:39.327Z,23.56
2018-09-09T04:44:10.590Z,23.56
2018-09-09T04:44:41.744Z,23.65
2018-09-09T04:45:12.912Z,23.59
2018-09-09T04:45:44.084Z,23.53
2018-09-09T04:46:15.309Z,23.52
2018-09-09T04:46:46.469Z,23.55
2018-09-09T04:47:17.600Z,23.55
2018-09-09T04:47:48.773Z,23.58
2018-09-09T04:48:19.989Z,23.63
2018-09-09T04:48:51.223Z,23.64
2018-09-09T04:49:22.392Z,23.67
2018-09-09T04:49:53.507Z,23.69
2018-09-09T04:50:24.730Z,23.70
2018-09-09T04:50:55.932Z,23.66
2018-09-09T04:51:27.108Z,23.61
2018-09-09T04:51:58.229Z,23.60
2018-09-09T04:52:29.412Z,23.64
2018-09-09T04:53:00.592Z,23.70
2018-09-09T04:53:31.757Z,23.75
2018-09-09T04:54:02.940Z,23.74
2018-09-09T04:54:34.146Z,23.73
2018-09-09T04:55:05.308Z,23.62
2018-09-09T04:55:36.424Z,23.59
2018-09-09T04:56:07.584Z,23.55
2018-09-09T04:56:38.762Z,23.58
2018-09-09T04:57:09.931Z,23.68
2018-09-09T04:57:41.069Z,23.63
2018-09-09T04:58:12.182Z,23.62
2018-09-09T04:58:43.345Z,23.65
2018-09-09T04:59:14.565Z,23.65
2018-09-09T04:59:46.349Z,23.55
2018-09-09T05:00:17.560Z,23.48
2018-09-09T05:00:48.693Z,23.52
2018-09-09T05:01:19.909Z,23.52
2018-09-09T05:01:50.946Z,23.53
2018-09-09T05:02:22.114Z,23.56
2018-09-09T05:02:53.236Z,23.53
2018-09-09T05:03:24.425Z,23.56
2018-09-09T05:03:55.601Z,23.59
2018-09-09T05:04:26.801Z,23.60
2018-09-09T05:04:57.928Z,23.59
2018-09-09T05:05:29.126Z,23.63
2018-09-09T05:06:00.306Z,23.69
2018-09-09T05:06:31.429Z,23.74
2018-09-09T05:07:02.656Z,23.84
2018-09-09T05:07:33.780Z,23.84
2018-09-09T05:08:04.954Z,23.79
2018-09-09T05:08:36.079Z,23.76
2018-09-09T05:09:07.242Z,23.81
2018-09-09T05:09:38.421Z,23.85
2018-09-09T05:10:09.596Z,23.90
2018-09-09T05:10:40.749Z,23.90
2018-09-09T05:11:11.917Z,23.86
2018-09-09T05:11:43.037Z,23.93
2018-09-09T05:12:14.150Z,24.00
2018-09-09T05:12:45.278Z,24.03
2018-09-09T05:13:16.446Z,24.09
2018-09-09T05:13:47.628Z,24.18
2018-09-09T05:14:18.749Z,24.19
2018-09-09T05:14:49.865Z,24.18
2018-09-09T05:15:21.044Z,24.18
2018-09-09T05:15:52.268Z,24.27
2018-09-09T05:16:23.373Z,24.39
2018-09-09T05:16:54.495Z,24.49
2018-09-09T05:17:25.661Z,24.54
2018-09-09T05:17:56.782Z,24.52
2018-09-09T05:18:27.969Z,24.47
2018-09-09T05:18:59.116Z,24.48
2018-09-09T05:19:30.284Z,24.46
2018-09-09T05:20:01.643Z,24.48
2018-09-09T05:20:32.838Z,24.54
2018-09-09T05:21:04.003Z,24.39
2018-09-09T05:21:35.173Z,24.25
2018-09-09T05:22:06.415Z,24.11
2018-09-09T05:22:37.649Z,24.02
2018-09-09T05:23:08.834Z,23.91
2018-09-09T05:23:39.973Z,23.90
2018-09-09T05:24:11.138Z,23.92
2018-09-09T05:24:42.313Z,23.92
2018-09-09T05:25:13.432Z,23.95
2018-09-09T05:25:45.209Z,23.92
2018-09-09T05:26:16.396Z,23.95
2018-09-09T05:26:47.504Z,24.00
2018-09-09T05:27:18.666Z,24.00
2018-09-09T05:27:49.880Z,23.97
2018-09-09T05:28:21.062Z,23.91
2018-09-09T05:28:52.223Z,23.87
2018-09-09T05:29:23.409Z,23.80
2018-09-09T05:29:54.594Z,23.72
2018-09-09T05:30:25.823Z,23.65
2018-09-09T05:30:56.948Z,23.59
2018-09-09T05:31:28.194Z,23.58
2018-09-09T05:31:59.368Z,23.58
2018-09-09T05:32:30.582Z,23.60
2018-09-09T05:33:01.698Z,23.60
2018-09-09T05:33:32.846Z,23.58
2018-09-09T05:34:04.064Z,23.60
2018-09-09T05:34:35.274Z,23.60
2018-09-09T05:35:06.396Z,23.62
2018-09-09T05:35:37.619Z,23.62
2018-09-09T05:36:08.794Z,23.66
2018-09-09T05:36:39.923Z,23.66
2018-09-09T05:37:11.163Z,23.66
2018-09-09T05:37:42.344Z,23.64
2018-09-09T05:38:13.521Z,23.67
2018-09-09T05:38:44.831Z,23.71
2018-09-09T05:39:16.612Z,23.72
2018-09-09T05:39:47.731Z,23.82
2018-09-09T05:40:18.852Z,23.77
2018-09-09T05:40:49.959Z,23.69
2018-09-09T05:41:21.077Z,23.59
2018-09-09T05:41:52.188Z,23.49
2018-09-09T05:42:23.449Z,23.48
2018-09-09T05:42:54.557Z,23.55
2018-09-09T05:43:25.726Z,23.63
2018-09-09T05:43:56.933Z,23.68
2018-09-09T05:44:28.108Z,23.76
2018-09-09T05:44:59.295Z,23.86
2018-09-09T05:45:30.480Z,23.95
2018-09-09T05:46:01.652Z,23.94
2018-09-09T05:46:32.861Z,23.91
2018-09-09T05:47:03.972Z,23.93
2018-09-09T05:47:35.087Z,24.00
2018-09-09T05:48:06.254Z,24.04
2018-09-09T05:48:37.389Z,23.99
2018-09-09T05:49:08.592Z,23.98
2018-09-09T05:49:39.772Z,24.00
2018-09-09T05:50:10.890Z,23.95
2018-09-09T05:50:42.125Z,23.97
2018-09-09T05:51:13.316Z,24.03
2018-09-09T05:51:44.533Z,24.04
2018-09-09T05:52:15.658Z,23.95
2018-09-09T05:52:46.775Z,23.92
2018-09-09T05:53:17.953Z,23.83
2018-09-09T05:53:49.137Z,23.78
2018-09-09T05:54:20.258Z,23.79
2018-09-09T05:54:51.371Z,23.86
2018-09-09T05:55:22.551Z,23.93
2018-09-09T05:55:53.730Z,23.95
2018-09-09T05:56:24.844Z,23.95
2018-09-09T05:56:56.110Z,23.94
2018-09-09T05:57:27.312Z,24.00
2018-09-09T05:57:58.519Z,24.05
2018-09-09T05:58:29.673Z,24.16
2018-09-09T05:59:00.840Z,24.21
2018-09-09T05:59:32.090Z,24.18
2018-09-09T06:00:03.216Z,24.18
2018-09-09T06:00:34.340Z,24.25
2018-09-09T06:01:05.513Z,24.27
2018-09-09T06:01:36.744Z,24.21
2018-09-09T06:02:07.931Z,24.20
2018-09-09T06:02:39.095Z,24.21
2018-09-09T06:03:10.329Z,24.17
2018-09-09T06:03:41.513Z,24.11
2018-09-09T06:04:12.681Z,24.13
2018-09-09T06:04:43.921Z,24.08
2018-09-09T06:05:15.113Z,24.06
2018-09-09T06:05:46.277Z,24.10
2018-09-09T06:06:17.502Z,24.19
2018-09-09T06:06:48.625Z,24.22
2018-09-09T06:07:19.755Z,24.28
2018-09-09T06:07:50.877Z,24.32
2018-09-09T06:08:22.094Z,24.35
2018-09-09T06:08:53.203Z,24.43
2018-09-09T06:09:24.404Z,24.42
2018-09-09T06:09:55.527Z,24.40
2018-09-09T06:10:26.708Z,24.39
2018-09-09T06:10:57.893Z,24.36
2018-09-09T06:11:29.059Z,24.32
2018-09-09T06:12:00.232Z,24.31
2018-09-09T06:12:31.368Z,24.27
2018-09-09T06:13:02.481Z,24.24
2018-09-09T06:13:33.599Z,24.23
2018-09-09T06:14:04.783Z,24.24
2018-09-09T06:14:35.940Z,24.17
2018-09-09T06:15:07.173Z,24.17
2018-09-09T06:15:38.296Z,24.17
2018-09-09T06:16:09.481Z,24.17
2018-09-09T06:16:40.712Z,24.21
2018-09-09T06:17:11.893Z,24.23
2018-09-09T06:17:43.080Z,24.29
2018-09-09T06:18:14.255Z,24.30
2018-09-09T06:18:45.424Z,24.29
2018-09-09T06:19:16.618Z,24.26
2018-09-09T06:19:47.824Z,24.27
2018-09-09T06:20:18.993Z,24.37
2018-09-09T06:20:50.175Z,24.41
2018-09-09T06:21:21.309Z,24.37
2018-09-09T06:21:52.441Z,24.44
2018-09-09T06:22:23.669Z,24.50
2018-09-09T06:22:54.844Z,24.58
2018-09-09T06:23:26.023Z,24.67
2018-09-09T06:23:57.156Z,24.70
2018-09-09T06:24:28.277Z,24.71
2018-09-09T06:24:59.403Z,24.72
2018-09-09T06:25:30.648Z,24.73
2018-09-09T06:26:01.820Z,24.72
2018-09-09T06:26:32.951Z,24.69
2018-09-09T06:27:04.077Z,24.68
2018-09-09T06:27:35.198Z,24.66
2018-09-09T06:28:06.391Z,24.62
2018-09-09T06:28:37.500Z,24.59
2018-09-09T06:29:08.624Z,24.58
2018-09-09T06:29:39.751Z,24.60
2018-09-09T06:30:10.972Z,24.55
2018-09-09T06:30:42.144Z,24.51
2018-09-09T06:31:13.385Z,24.48
2018-09-09T06:31:44.574Z,24.47
2018-09-09T06:32:15.807Z,24.52
2018-09-09T06:32:46.988Z,24.59
2018-09-09T06:33:18.236Z,24.69
2018-09-09T06:33:49.450Z,24.75
2018-09-09T06:34:20.571Z,24.78
2018-09-09T06:34:51.684Z,24.74
2018-09-09T06:35:22.822Z,24.75
2018-09-09T06:35:53.956Z,24.77
2018-09-09T06:36:25.134Z,24.78
2018-09-09T06:36:56.305Z,24.79
2018-09-09T06:37:27.440Z,24.84
2018-09-09T06:37:58.612Z,24.82
2018-09-09T06:38:29.859Z,24.80
2018-09-09T06:39:01.082Z,24.79
2018-09-09T06:39:32.253Z,24.78
2018-09-09T06:40:03.368Z,24.76
2018-09-09T06:40:34.544Z,24.76
2018-09-09T06:41:05.663Z,24.74